sensor_id;sensor_type;location;lat;lon;timestamp;P1;durP1;ratioP1;P2;durP2;ratioP2
5521;SDS011;2783;48.730;8.006;2023-07-13T00:01:30;2.22;;;0.88;;
5521;SDS011;2783;48.730;8.006;2023-07-13T00:03:56;1.42;;;0.85;;
5521;SDS011;2783;48.730;8.006;2023-07-13T00:06:22;2.28;;;1.00;;
5521;SDS011;2783;48.730;8.006;2023-07-13T00:08:48;2.15;;;0.82;;
5521;SDS011;2783;48.730;8.006;2023-07-13T00:11:14;4.18;;;1.02;;
5521;SDS011;2783;48.730;8.006;2023-07-13T00:13:41;2.15;;;1.00;;
5521;SDS011;2783;48.730;8.006;2023-07-13T00:16:08;2.40;;;1.00;;
5521;SDS011;2783;48.730;8.006;2023-07-13T00:18:34;1.63;;;0.82;;
5521;SDS011;2783;48.730;8.006;2023-07-13T00:21:00;9.52;;;1.20;;
5521;SDS011;2783;48.730;8.006;2023-07-13T00:23:30;3.13;;;1.23;;
5521;SDS011;2783;48.730;8.006;2023-07-13T00:25:59;2.50;;;1.05;;
5521;SDS011;2783;48.730;8.006;2023-07-13T00:28:25;1.52;;;0.93;;
5521;SDS011;2783;48.730;8.006;2023-07-13T00:30:50;2.88;;;0.82;;
5521;SDS011;2783;48.730;8.006;2023-07-13T00:33:15;5.18;;;1.20;;
5521;SDS011;2783;48.730;8.006;2023-07-13T00:35:41;3.50;;;1.30;;
5521;SDS011;2783;48.730;8.006;2023-07-13T00:38:08;3.00;;;1.17;;
5521;SDS011;2783;48.730;8.006;2023-07-13T00:40:34;1.83;;;1.30;;
5521;SDS011;2783;48.730;8.006;2023-07-13T00:43:00;2.80;;;1.10;;
5521;SDS011;2783;48.730;8.006;2023-07-13T00:47:50;3.47;;;1.10;;
5521;SDS011;2783;48.730;8.006;2023-07-13T00:50:16;1.43;;;1.10;;
5521;SDS011;2783;48.730;8.006;2023-07-13T00:52:45;1.98;;;0.98;;
5521;SDS011;2783;48.730;8.006;2023-07-13T00:55:13;2.42;;;1.10;;
5521;SDS011;2783;48.730;8.006;2023-07-13T00:57:40;2.55;;;1.20;;
5521;SDS011;2783;48.730;8.006;2023-07-13T01:03:04;3.78;;;1.08;;
5521;SDS011;2783;48.730;8.006;2023-07-13T01:05:30;3.83;;;1.20;;
5521;SDS011;2783;48.730;8.006;2023-07-13T01:07:58;2.67;;;1.17;;
5521;SDS011;2783;48.730;8.006;2023-07-13T01:10:25;2.35;;;1.20;;
5521;SDS011;2783;48.730;8.006;2023-07-13T01:12:52;2.25;;;0.90;;
5521;SDS011;2783;48.730;8.006;2023-07-13T01:15:38;3.67;;;1.10;;
5521;SDS011;2783;48.730;8.006;2023-07-13T01:18:06;2.00;;;1.08;;
5521;SDS011;2783;48.730;8.006;2023-07-13T01:20:34;4.28;;;1.23;;
5521;SDS011;2783;48.730;8.006;2023-07-13T01:23:08;3.70;;;1.25;;
5521;SDS011;2783;48.730;8.006;2023-07-13T01:25:35;9.43;;;1.50;;
5521;SDS011;2783;48.730;8.006;2023-07-13T01:28:02;3.13;;;1.35;;
5521;SDS011;2783;48.730;8.006;2023-07-13T01:30:29;3.40;;;1.50;;
5521;SDS011;2783;48.730;8.006;2023-07-13T01:32:54;4.93;;;1.27;;
5521;SDS011;2783;48.730;8.006;2023-07-13T01:35:20;3.95;;;1.02;;
5521;SDS011;2783;48.730;8.006;2023-07-13T01:37:45;2.72;;;1.50;;
5521;SDS011;2783;48.730;8.006;2023-07-13T01:40:11;2.85;;;1.25;;
5521;SDS011;2783;48.730;8.006;2023-07-13T01:42:38;2.80;;;1.20;;
5521;SDS011;2783;48.730;8.006;2023-07-13T01:45:04;5.80;;;1.40;;
5521;SDS011;2783;48.730;8.006;2023-07-13T01:47:30;3.88;;;1.35;;
5521;SDS011;2783;48.730;8.006;2023-07-13T01:49:56;2.08;;;1.42;;
5521;SDS011;2783;48.730;8.006;2023-07-13T01:52:21;5.38;;;1.33;;
5521;SDS011;2783;48.730;8.006;2023-07-13T01:54:47;4.00;;;1.65;;
5521;SDS011;2783;48.730;8.006;2023-07-13T01:57:12;2.10;;;1.23;;
5521;SDS011;2783;48.730;8.006;2023-07-13T01:59:38;2.75;;;1.30;;
5521;SDS011;2783;48.730;8.006;2023-07-13T02:02:03;3.35;;;1.40;;
5521;SDS011;2783;48.730;8.006;2023-07-13T02:04:29;3.45;;;1.33;;
5521;SDS011;2783;48.730;8.006;2023-07-13T02:06:54;7.82;;;1.75;;
5521;SDS011;2783;48.730;8.006;2023-07-13T02:09:20;4.25;;;1.50;;
5521;SDS011;2783;48.730;8.006;2023-07-13T02:11:46;5.88;;;1.83;;
5521;SDS011;2783;48.730;8.006;2023-07-13T02:14:11;5.15;;;1.48;;
5521;SDS011;2783;48.730;8.006;2023-07-13T02:16:37;3.55;;;1.55;;
5521;SDS011;2783;48.730;8.006;2023-07-13T02:19:02;5.60;;;1.60;;
5521;SDS011;2783;48.730;8.006;2023-07-13T02:21:28;5.55;;;1.80;;
5521;SDS011;2783;48.730;8.006;2023-07-13T02:23:54;4.53;;;1.70;;
5521;SDS011;2783;48.730;8.006;2023-07-13T02:26:19;3.83;;;1.98;;
5521;SDS011;2783;48.730;8.006;2023-07-13T02:28:45;3.75;;;1.88;;
5521;SDS011;2783;48.730;8.006;2023-07-13T02:31:13;5.65;;;1.95;;
5521;SDS011;2783;48.730;8.006;2023-07-13T02:33:39;5.40;;;1.70;;
5521;SDS011;2783;48.730;8.006;2023-07-13T02:36:05;3.58;;;1.55;;
5521;SDS011;2783;48.730;8.006;2023-07-13T02:38:31;5.07;;;1.40;;
5521;SDS011;2783;48.730;8.006;2023-07-13T02:41:01;3.50;;;1.52;;
5521;SDS011;2783;48.730;8.006;2023-07-13T02:43:30;3.22;;;1.80;;
5521;SDS011;2783;48.730;8.006;2023-07-13T02:45:56;5.38;;;1.70;;
5521;SDS011;2783;48.730;8.006;2023-07-13T02:48:21;4.40;;;2.50;;
5521;SDS011;2783;48.730;8.006;2023-07-13T02:50:47;3.72;;;1.60;;
5521;SDS011;2783;48.730;8.006;2023-07-13T02:53:12;4.00;;;1.50;;
5521;SDS011;2783;48.730;8.006;2023-07-13T02:55:37;4.82;;;1.70;;
5521;SDS011;2783;48.730;8.006;2023-07-13T02:58:04;4.20;;;1.67;;
5521;SDS011;2783;48.730;8.006;2023-07-13T03:00:31;8.55;;;1.92;;
5521;SDS011;2783;48.730;8.006;2023-07-13T03:02:56;6.72;;;1.60;;
5521;SDS011;2783;48.730;8.006;2023-07-13T03:05:23;3.58;;;1.52;;
5521;SDS011;2783;48.730;8.006;2023-07-13T03:07:48;5.93;;;1.70;;
5521;SDS011;2783;48.730;8.006;2023-07-13T03:10:14;2.25;;;1.38;;
5521;SDS011;2783;48.730;8.006;2023-07-13T03:12:39;4.63;;;1.88;;
5521;SDS011;2783;48.730;8.006;2023-07-13T03:15:05;6.25;;;1.60;;
5521;SDS011;2783;48.730;8.006;2023-07-13T03:17:31;21.42;;;3.17;;
5521;SDS011;2783;48.730;8.006;2023-07-13T03:19:56;5.32;;;1.80;;
5521;SDS011;2783;48.730;8.006;2023-07-13T03:22:22;3.78;;;1.50;;
5521;SDS011;2783;48.730;8.006;2023-07-13T03:24:47;5.95;;;1.98;;
5521;SDS011;2783;48.730;8.006;2023-07-13T03:27:13;4.50;;;1.30;;
5521;SDS011;2783;48.730;8.006;2023-07-13T03:29:39;3.22;;;2.00;;
5521;SDS011;2783;48.730;8.006;2023-07-13T03:32:05;5.20;;;2.63;;
5521;SDS011;2783;48.730;8.006;2023-07-13T03:34:31;4.70;;;1.77;;
5521;SDS011;2783;48.730;8.006;2023-07-13T03:36:57;2.72;;;1.50;;
5521;SDS011;2783;48.730;8.006;2023-07-13T03:39:23;3.10;;;1.60;;
5521;SDS011;2783;48.730;8.006;2023-07-13T03:41:48;3.10;;;1.63;;
5521;SDS011;2783;48.730;8.006;2023-07-13T03:44:15;6.70;;;1.80;;
5521;SDS011;2783;48.730;8.006;2023-07-13T03:46:42;6.47;;;1.90;;
5521;SDS011;2783;48.730;8.006;2023-07-13T03:49:07;4.40;;;1.80;;
5521;SDS011;2783;48.730;8.006;2023-07-13T03:51:33;3.47;;;2.15;;
5521;SDS011;2783;48.730;8.006;2023-07-13T03:53:58;3.22;;;1.73;;
5521;SDS011;2783;48.730;8.006;2023-07-13T03:56:24;3.03;;;1.52;;
5521;SDS011;2783;48.730;8.006;2023-07-13T03:58:49;5.10;;;1.80;;
5521;SDS011;2783;48.730;8.006;2023-07-13T04:01:16;4.30;;;1.65;;
5521;SDS011;2783;48.730;8.006;2023-07-13T04:03:43;3.60;;;1.92;;
5521;SDS011;2783;48.730;8.006;2023-07-13T04:06:13;4.43;;;2.30;;
5521;SDS011;2783;48.730;8.006;2023-07-13T04:08:46;4.75;;;1.98;;
5521;SDS011;2783;48.730;8.006;2023-07-13T04:11:14;9.68;;;2.70;;
5521;SDS011;2783;48.730;8.006;2023-07-13T04:13:39;4.38;;;1.95;;
5521;SDS011;2783;48.730;8.006;2023-07-13T04:16:05;3.30;;;1.50;;
5521;SDS011;2783;48.730;8.006;2023-07-13T04:18:30;3.13;;;1.67;;
5521;SDS011;2783;48.730;8.006;2023-07-13T04:20:55;3.97;;;2.00;;
5521;SDS011;2783;48.730;8.006;2023-07-13T04:23:21;5.20;;;2.05;;
5521;SDS011;2783;48.730;8.006;2023-07-13T04:25:47;3.28;;;1.75;;
5521;SDS011;2783;48.730;8.006;2023-07-13T04:28:17;3.80;;;1.60;;
5521;SDS011;2783;48.730;8.006;2023-07-13T04:30:47;3.15;;;1.50;;
5521;SDS011;2783;48.730;8.006;2023-07-13T04:33:12;4.38;;;1.50;;
5521;SDS011;2783;48.730;8.006;2023-07-13T04:35:38;4.20;;;1.60;;
5521;SDS011;2783;48.730;8.006;2023-07-13T04:38:04;4.72;;;1.80;;
5521;SDS011;2783;48.730;8.006;2023-07-13T04:40:29;2.53;;;1.80;;
5521;SDS011;2783;48.730;8.006;2023-07-13T04:42:55;3.78;;;1.63;;
5521;SDS011;2783;48.730;8.006;2023-07-13T04:45:21;6.47;;;2.10;;
5521;SDS011;2783;48.730;8.006;2023-07-13T04:47:46;8.15;;;2.08;;
5521;SDS011;2783;48.730;8.006;2023-07-13T04:50:12;4.35;;;1.75;;
5521;SDS011;2783;48.730;8.006;2023-07-13T04:52:43;6.32;;;2.08;;
5521;SDS011;2783;48.730;8.006;2023-07-13T04:55:09;4.57;;;1.90;;
5521;SDS011;2783;48.730;8.006;2023-07-13T04:57:34;4.22;;;1.70;;
5521;SDS011;2783;48.730;8.006;2023-07-13T05:00:00;6.03;;;1.70;;
5521;SDS011;2783;48.730;8.006;2023-07-13T05:02:26;4.07;;;2.28;;
5521;SDS011;2783;48.730;8.006;2023-07-13T05:04:53;5.22;;;1.75;;
5521;SDS011;2783;48.730;8.006;2023-07-13T05:07:18;3.47;;;1.58;;
5521;SDS011;2783;48.730;8.006;2023-07-13T05:09:44;4.20;;;1.85;;
5521;SDS011;2783;48.730;8.006;2023-07-13T05:12:09;5.70;;;1.55;;
5521;SDS011;2783;48.730;8.006;2023-07-13T05:14:35;3.15;;;1.50;;
5521;SDS011;2783;48.730;8.006;2023-07-13T05:17:00;2.13;;;1.25;;
5521;SDS011;2783;48.730;8.006;2023-07-13T05:19:26;7.32;;;2.30;;
5521;SDS011;2783;48.730;8.006;2023-07-13T05:21:51;4.00;;;2.00;;
5521;SDS011;2783;48.730;8.006;2023-07-13T05:24:17;5.18;;;2.05;;
5521;SDS011;2783;48.730;8.006;2023-07-13T05:26:43;4.38;;;2.20;;
5521;SDS011;2783;48.730;8.006;2023-07-13T05:29:08;5.70;;;2.53;;
5521;SDS011;2783;48.730;8.006;2023-07-13T05:31:34;5.55;;;2.30;;
5521;SDS011;2783;48.730;8.006;2023-07-13T05:33:59;12.00;;;2.38;;
5521;SDS011;2783;48.730;8.006;2023-07-13T05:36:25;3.85;;;2.05;;
5521;SDS011;2783;48.730;8.006;2023-07-13T05:38:50;5.28;;;2.47;;
5521;SDS011;2783;48.730;8.006;2023-07-13T05:41:15;5.28;;;2.28;;
5521;SDS011;2783;48.730;8.006;2023-07-13T05:43:41;9.05;;;2.70;;
5521;SDS011;2783;48.730;8.006;2023-07-13T05:46:06;7.97;;;3.55;;
5521;SDS011;2783;48.730;8.006;2023-07-13T05:48:32;5.60;;;2.42;;
5521;SDS011;2783;48.730;8.006;2023-07-13T05:50:57;5.28;;;2.50;;
5521;SDS011;2783;48.730;8.006;2023-07-13T05:53:23;4.30;;;2.15;;
5521;SDS011;2783;48.730;8.006;2023-07-13T05:55:48;5.20;;;2.10;;
5521;SDS011;2783;48.730;8.006;2023-07-13T05:58:18;4.47;;;2.15;;
5521;SDS011;2783;48.730;8.006;2023-07-13T06:00:44;6.00;;;2.42;;
5521;SDS011;2783;48.730;8.006;2023-07-13T06:03:09;4.85;;;1.80;;
5521;SDS011;2783;48.730;8.006;2023-07-13T06:05:37;4.53;;;3.58;;
5521;SDS011;2783;48.730;8.006;2023-07-13T06:08:04;4.75;;;2.10;;
5521;SDS011;2783;48.730;8.006;2023-07-13T06:10:36;4.07;;;1.67;;
5521;SDS011;2783;48.730;8.006;2023-07-13T06:13:02;5.75;;;2.47;;
5521;SDS011;2783;48.730;8.006;2023-07-13T06:15:28;7.10;;;2.13;;
5521;SDS011;2783;48.730;8.006;2023-07-13T06:17:53;5.32;;;2.60;;
5521;SDS011;2783;48.730;8.006;2023-07-13T06:20:19;7.18;;;2.60;;
5521;SDS011;2783;48.730;8.006;2023-07-13T06:22:44;4.85;;;1.95;;
5521;SDS011;2783;48.730;8.006;2023-07-13T06:25:10;7.07;;;2.60;;
5521;SDS011;2783;48.730;8.006;2023-07-13T06:27:35;8.63;;;2.72;;
5521;SDS011;2783;48.730;8.006;2023-07-13T06:30:01;5.05;;;1.80;;
5521;SDS011;2783;48.730;8.006;2023-07-13T06:32:26;4.82;;;2.00;;
5521;SDS011;2783;48.730;8.006;2023-07-13T06:34:52;8.73;;;1.83;;
5521;SDS011;2783;48.730;8.006;2023-07-13T06:37:17;3.70;;;1.65;;
5521;SDS011;2783;48.730;8.006;2023-07-13T06:39:43;6.90;;;1.95;;
5521;SDS011;2783;48.730;8.006;2023-07-13T06:42:08;4.55;;;1.70;;
5521;SDS011;2783;48.730;8.006;2023-07-13T06:44:34;3.85;;;2.35;;
5521;SDS011;2783;48.730;8.006;2023-07-13T06:46:59;4.25;;;1.40;;
5521;SDS011;2783;48.730;8.006;2023-07-13T06:49:25;6.53;;;1.88;;
5521;SDS011;2783;48.730;8.006;2023-07-13T06:51:51;2.88;;;1.42;;
5521;SDS011;2783;48.730;8.006;2023-07-13T06:54:16;4.07;;;1.60;;
5521;SDS011;2783;48.730;8.006;2023-07-13T06:56:41;4.10;;;1.70;;
5521;SDS011;2783;48.730;8.006;2023-07-13T06:59:07;4.90;;;1.80;;
5521;SDS011;2783;48.730;8.006;2023-07-13T07:01:32;3.17;;;1.52;;
5521;SDS011;2783;48.730;8.006;2023-07-13T07:03:58;3.33;;;1.42;;
5521;SDS011;2783;48.730;8.006;2023-07-13T07:06:23;4.55;;;1.30;;
5521;SDS011;2783;48.730;8.006;2023-07-13T07:08:49;3.58;;;1.30;;
5521;SDS011;2783;48.730;8.006;2023-07-13T07:11:23;2.63;;;1.25;;
5521;SDS011;2783;48.730;8.006;2023-07-13T07:13:51;3.38;;;1.20;;
5521;SDS011;2783;48.730;8.006;2023-07-13T07:16:18;3.58;;;1.30;;
5521;SDS011;2783;48.730;8.006;2023-07-13T07:18:44;3.67;;;1.52;;
5521;SDS011;2783;48.730;8.006;2023-07-13T07:21:10;2.97;;;1.60;;
5521;SDS011;2783;48.730;8.006;2023-07-13T07:23:35;4.82;;;1.35;;
5521;SDS011;2783;48.730;8.006;2023-07-13T07:26:01;3.50;;;1.35;;
5521;SDS011;2783;48.730;8.006;2023-07-13T07:28:27;2.28;;;1.20;;
5521;SDS011;2783;48.730;8.006;2023-07-13T07:30:54;4.00;;;1.52;;
5521;SDS011;2783;48.730;8.006;2023-07-13T07:33:21;4.05;;;1.08;;
5521;SDS011;2783;48.730;8.006;2023-07-13T07:35:47;3.13;;;1.27;;
5521;SDS011;2783;48.730;8.006;2023-07-13T07:38:12;2.28;;;1.40;;
5521;SDS011;2783;48.730;8.006;2023-07-13T07:40:38;2.55;;;1.10;;
5521;SDS011;2783;48.730;8.006;2023-07-13T07:43:05;4.13;;;1.40;;
5521;SDS011;2783;48.730;8.006;2023-07-13T07:45:31;3.25;;;1.20;;
5521;SDS011;2783;48.730;8.006;2023-07-13T07:47:56;3.67;;;1.30;;
5521;SDS011;2783;48.730;8.006;2023-07-13T07:50:24;4.15;;;1.20;;
5521;SDS011;2783;48.730;8.006;2023-07-13T07:52:50;4.90;;;1.20;;
5521;SDS011;2783;48.730;8.006;2023-07-13T07:55:15;3.38;;;1.20;;
5521;SDS011;2783;48.730;8.006;2023-07-13T07:57:41;4.55;;;1.42;;
5521;SDS011;2783;48.730;8.006;2023-07-13T08:00:06;6.00;;;1.20;;
5521;SDS011;2783;48.730;8.006;2023-07-13T08:02:32;2.10;;;1.20;;
5521;SDS011;2783;48.730;8.006;2023-07-13T08:04:58;3.03;;;1.13;;
5521;SDS011;2783;48.730;8.006;2023-07-13T08:07:23;1.92;;;1.33;;
5521;SDS011;2783;48.730;8.006;2023-07-13T08:09:51;3.22;;;1.05;;
5521;SDS011;2783;48.730;8.006;2023-07-13T08:12:17;3.45;;;1.02;;
5521;SDS011;2783;48.730;8.006;2023-07-13T08:14:43;4.22;;;1.20;;
5521;SDS011;2783;48.730;8.006;2023-07-13T08:17:08;3.17;;;1.27;;
5521;SDS011;2783;48.730;8.006;2023-07-13T08:19:33;2.45;;;1.00;;
5521;SDS011;2783;48.730;8.006;2023-07-13T08:21:59;6.90;;;1.23;;
5521;SDS011;2783;48.730;8.006;2023-07-13T08:24:24;4.65;;;1.17;;
5521;SDS011;2783;48.730;8.006;2023-07-13T08:26:50;4.22;;;1.20;;
5521;SDS011;2783;48.730;8.006;2023-07-13T08:29:17;6.28;;;1.20;;
5521;SDS011;2783;48.730;8.006;2023-07-13T08:31:42;2.60;;;1.10;;
5521;SDS011;2783;48.730;8.006;2023-07-13T08:34:08;1.40;;;0.90;;
5521;SDS011;2783;48.730;8.006;2023-07-13T08:36:33;3.58;;;1.10;;
5521;SDS011;2783;48.730;8.006;2023-07-13T08:38:59;3.63;;;1.20;;
5521;SDS011;2783;48.730;8.006;2023-07-13T08:41:24;5.40;;;1.63;;
5521;SDS011;2783;48.730;8.006;2023-07-13T08:43:51;2.53;;;1.02;;
5521;SDS011;2783;48.730;8.006;2023-07-13T08:46:39;4.22;;;1.40;;
5521;SDS011;2783;48.730;8.006;2023-07-13T08:49:15;2.42;;;1.00;;
5521;SDS011;2783;48.730;8.006;2023-07-13T08:51:43;4.13;;;0.90;;
5521;SDS011;2783;48.730;8.006;2023-07-13T08:54:16;2.13;;;1.00;;
5521;SDS011;2783;48.730;8.006;2023-07-13T08:56:46;3.58;;;1.13;;
5521;SDS011;2783;48.730;8.006;2023-07-13T08:59:18;2.85;;;0.80;;
5521;SDS011;2783;48.730;8.006;2023-07-13T09:02:05;2.83;;;1.08;;
5521;SDS011;2783;48.730;8.006;2023-07-13T09:04:42;2.40;;;0.70;;
5521;SDS011;2783;48.730;8.006;2023-07-13T09:10:05;1.90;;;0.88;;
5521;SDS011;2783;48.730;8.006;2023-07-13T09:15:59;4.35;;;0.80;;
5521;SDS011;2783;48.730;8.006;2023-07-13T09:18:33;2.72;;;1.02;;
5521;SDS011;2783;48.730;8.006;2023-07-13T09:21:19;1.73;;;0.80;;
5521;SDS011;2783;48.730;8.006;2023-07-13T09:23:46;2.90;;;1.67;;
5521;SDS011;2783;48.730;8.006;2023-07-13T09:26:14;3.22;;;0.95;;
5521;SDS011;2783;48.730;8.006;2023-07-13T09:28:45;4.68;;;1.90;;
5521;SDS011;2783;48.730;8.006;2023-07-13T09:31:15;2.08;;;0.80;;
5521;SDS011;2783;48.730;8.006;2023-07-13T09:34:01;2.30;;;0.70;;
5521;SDS011;2783;48.730;8.006;2023-07-13T09:36:28;1.55;;;1.00;;
5521;SDS011;2783;48.730;8.006;2023-07-13T09:39:05;4.45;;;1.60;;
5521;SDS011;2783;48.730;8.006;2023-07-13T09:44:29;4.00;;;1.13;;
5521;SDS011;2783;48.730;8.006;2023-07-13T09:46:58;3.85;;;0.95;;
5521;SDS011;2783;48.730;8.006;2023-07-13T09:49:27;1.98;;;0.90;;
5521;SDS011;2783;48.730;8.006;2023-07-13T09:52:04;3.83;;;0.90;;
5521;SDS011;2783;48.730;8.006;2023-07-13T09:54:35;2.50;;;1.15;;
5521;SDS011;2783;48.730;8.006;2023-07-13T09:57:02;1.73;;;0.80;;
5521;SDS011;2783;48.730;8.006;2023-07-13T09:59:29;3.10;;;0.80;;
5521;SDS011;2783;48.730;8.006;2023-07-13T10:01:56;4.05;;;0.90;;
5521;SDS011;2783;48.730;8.006;2023-07-13T10:04:27;4.25;;;0.90;;
5521;SDS011;2783;48.730;8.006;2023-07-13T10:07:06;2.97;;;1.00;;
5521;SDS011;2783;48.730;8.006;2023-07-13T10:09:33;2.60;;;0.85;;
5521;SDS011;2783;48.730;8.006;2023-07-13T10:11:59;2.10;;;0.73;;
5521;SDS011;2783;48.730;8.006;2023-07-13T10:14:24;3.55;;;0.70;;
5521;SDS011;2783;48.730;8.006;2023-07-13T10:16:58;4.03;;;1.00;;
5521;SDS011;2783;48.730;8.006;2023-07-13T10:19:28;2.05;;;0.80;;
5521;SDS011;2783;48.730;8.006;2023-07-13T10:22:01;3.35;;;0.90;;
5521;SDS011;2783;48.730;8.006;2023-07-13T10:24:35;2.25;;;1.25;;
5521;SDS011;2783;48.730;8.006;2023-07-13T10:27:19;2.35;;;0.73;;
5521;SDS011;2783;48.730;8.006;2023-07-13T10:29:55;3.55;;;1.05;;
5521;SDS011;2783;48.730;8.006;2023-07-13T10:32:27;1.13;;;0.70;;
5521;SDS011;2783;48.730;8.006;2023-07-13T10:34:52;4.72;;;0.90;;
5521;SDS011;2783;48.730;8.006;2023-07-13T10:37:22;1.52;;;0.65;;
5521;SDS011;2783;48.730;8.006;2023-07-13T10:39:50;2.85;;;0.73;;
5521;SDS011;2783;48.730;8.006;2023-07-13T10:42:39;1.85;;;0.73;;
5521;SDS011;2783;48.730;8.006;2023-07-13T10:45:17;2.30;;;0.68;;
5521;SDS011;2783;48.730;8.006;2023-07-13T10:47:44;1.98;;;0.93;;
5521;SDS011;2783;48.730;8.006;2023-07-13T10:50:15;4.03;;;1.17;;
5521;SDS011;2783;48.730;8.006;2023-07-13T10:52:46;5.13;;;1.75;;
5521;SDS011;2783;48.730;8.006;2023-07-13T11:03:22;1.77;;;0.88;;
5521;SDS011;2783;48.730;8.006;2023-07-13T11:05:49;4.50;;;1.00;;
5521;SDS011;2783;48.730;8.006;2023-07-13T11:10:51;1.05;;;0.60;;
5521;SDS011;2783;48.730;8.006;2023-07-13T11:16:12;3.38;;;1.00;;
5521;SDS011;2783;48.730;8.006;2023-07-13T11:18:53;3.20;;;0.70;;
5521;SDS011;2783;48.730;8.006;2023-07-13T11:21:29;1.70;;;0.70;;
5521;SDS011;2783;48.730;8.006;2023-07-13T11:24:02;5.05;;;0.77;;
5521;SDS011;2783;48.730;8.006;2023-07-13T11:26:42;3.45;;;0.80;;
5521;SDS011;2783;48.730;8.006;2023-07-13T11:32:25;2.25;;;0.88;;
5521;SDS011;2783;48.730;8.006;2023-07-13T11:34:56;4.38;;;1.05;;
5521;SDS011;2783;48.730;8.006;2023-07-13T11:37:22;6.32;;;0.80;;
5521;SDS011;2783;48.730;8.006;2023-07-13T11:39:50;1.42;;;0.70;;
5521;SDS011;2783;48.730;8.006;2023-07-13T11:42:18;3.08;;;1.02;;
5521;SDS011;2783;48.730;8.006;2023-07-13T11:44:50;3.97;;;0.98;;
5521;SDS011;2783;48.730;8.006;2023-07-13T11:47:21;1.33;;;0.90;;
5521;SDS011;2783;48.730;8.006;2023-07-13T11:49:52;1.90;;;0.70;;
5521;SDS011;2783;48.730;8.006;2023-07-13T11:52:27;2.35;;;0.82;;
5521;SDS011;2783;48.730;8.006;2023-07-13T11:55:03;1.80;;;0.80;;
5521;SDS011;2783;48.730;8.006;2023-07-13T11:57:44;2.67;;;0.98;;
5521;SDS011;2783;48.730;8.006;2023-07-13T12:00:15;3.17;;;0.90;;
5521;SDS011;2783;48.730;8.006;2023-07-13T12:02:44;2.47;;;0.80;;
5521;SDS011;2783;48.730;8.006;2023-07-13T12:05:14;2.60;;;0.73;;
5521;SDS011;2783;48.730;8.006;2023-07-13T12:07:40;6.72;;;0.80;;
5521;SDS011;2783;48.730;8.006;2023-07-13T12:13:02;0.98;;;0.60;;
5521;SDS011;2783;48.730;8.006;2023-07-13T12:15:40;2.30;;;0.77;;
5521;SDS011;2783;48.730;8.006;2023-07-13T12:18:16;2.55;;;0.90;;
5521;SDS011;2783;48.730;8.006;2023-07-13T12:20:45;1.67;;;0.80;;
5521;SDS011;2783;48.730;8.006;2023-07-13T12:23:20;3.20;;;0.95;;
5521;SDS011;2783;48.730;8.006;2023-07-13T12:25:46;3.47;;;0.75;;
5521;SDS011;2783;48.730;8.006;2023-07-13T12:28:21;3.80;;;1.00;;
5521;SDS011;2783;48.730;8.006;2023-07-13T12:30:59;3.88;;;0.90;;
5521;SDS011;2783;48.730;8.006;2023-07-13T12:33:32;2.85;;;0.95;;
5521;SDS011;2783;48.730;8.006;2023-07-13T12:36:00;4.43;;;0.75;;
5521;SDS011;2783;48.730;8.006;2023-07-13T12:38:28;3.83;;;0.82;;
5521;SDS011;2783;48.730;8.006;2023-07-13T12:40:55;4.85;;;0.82;;
5521;SDS011;2783;48.730;8.006;2023-07-13T12:43:20;4.90;;;1.00;;
5521;SDS011;2783;48.730;8.006;2023-07-13T12:48:30;2.03;;;0.60;;
5521;SDS011;2783;48.730;8.006;2023-07-13T12:51:08;2.25;;;0.85;;
5521;SDS011;2783;48.730;8.006;2023-07-13T12:53:38;1.88;;;0.68;;
5521;SDS011;2783;48.730;8.006;2023-07-13T12:56:09;2.80;;;0.70;;
5521;SDS011;2783;48.730;8.006;2023-07-13T12:58:46;3.42;;;0.70;;
5521;SDS011;2783;48.730;8.006;2023-07-13T13:01:15;1.52;;;0.60;;
5521;SDS011;2783;48.730;8.006;2023-07-13T13:03:46;3.05;;;0.68;;
5521;SDS011;2783;48.730;8.006;2023-07-13T13:08:43;3.03;;;0.60;;
5521;SDS011;2783;48.730;8.006;2023-07-13T13:11:10;1.58;;;0.70;;
5521;SDS011;2783;48.730;8.006;2023-07-13T13:13:36;1.45;;;0.70;;
5521;SDS011;2783;48.730;8.006;2023-07-13T13:16:02;2.03;;;0.60;;
5521;SDS011;2783;48.730;8.006;2023-07-13T13:18:34;1.20;;;0.70;;
5521;SDS011;2783;48.730;8.006;2023-07-13T13:21:01;1.98;;;0.60;;
5521;SDS011;2783;48.730;8.006;2023-07-13T13:23:26;2.50;;;0.63;;
5521;SDS011;2783;48.730;8.006;2023-07-13T13:25:52;2.83;;;0.77;;
5521;SDS011;2783;48.730;8.006;2023-07-13T13:28:20;1.45;;;0.52;;
5521;SDS011;2783;48.730;8.006;2023-07-13T13:30:47;3.17;;;0.93;;
5521;SDS011;2783;48.730;8.006;2023-07-13T13:33:16;1.48;;;0.80;;
5521;SDS011;2783;48.730;8.006;2023-07-13T13:35:43;1.50;;;0.60;;
5521;SDS011;2783;48.730;8.006;2023-07-13T13:38:10;2.75;;;0.65;;
5521;SDS011;2783;48.730;8.006;2023-07-13T13:40:43;5.10;;;0.70;;
5521;SDS011;2783;48.730;8.006;2023-07-13T13:43:16;2.97;;;0.68;;
5521;SDS011;2783;48.730;8.006;2023-07-13T13:45:52;2.20;;;0.80;;
5521;SDS011;2783;48.730;8.006;2023-07-13T13:48:23;1.27;;;0.60;;
5521;SDS011;2783;48.730;8.006;2023-07-13T13:50:56;3.30;;;0.70;;
5521;SDS011;2783;48.730;8.006;2023-07-13T13:53:22;2.13;;;0.65;;
5521;SDS011;2783;48.730;8.006;2023-07-13T13:55:48;3.78;;;0.80;;
5521;SDS011;2783;48.730;8.006;2023-07-13T13:58:14;3.22;;;0.77;;
5521;SDS011;2783;48.730;8.006;2023-07-13T14:00:41;2.13;;;0.65;;
5521;SDS011;2783;48.730;8.006;2023-07-13T14:03:14;1.20;;;0.40;;
5521;SDS011;2783;48.730;8.006;2023-07-13T14:05:42;6.00;;;0.90;;
5521;SDS011;2783;48.730;8.006;2023-07-13T14:08:12;2.72;;;0.70;;
5521;SDS011;2783;48.730;8.006;2023-07-13T14:10:42;1.95;;;0.60;;
5521;SDS011;2783;48.730;8.006;2023-07-13T14:13:19;3.58;;;0.80;;
5521;SDS011;2783;48.730;8.006;2023-07-13T14:15:51;4.75;;;0.80;;
5521;SDS011;2783;48.730;8.006;2023-07-13T14:18:17;3.53;;;0.88;;
5521;SDS011;2783;48.730;8.006;2023-07-13T14:20:43;4.10;;;0.80;;
5521;SDS011;2783;48.730;8.006;2023-07-13T14:23:10;2.60;;;0.70;;
5521;SDS011;2783;48.730;8.006;2023-07-13T14:25:37;2.92;;;0.77;;
5521;SDS011;2783;48.730;8.006;2023-07-13T14:28:10;2.83;;;0.80;;
5521;SDS011;2783;48.730;8.006;2023-07-13T14:30:49;3.33;;;0.90;;
5521;SDS011;2783;48.730;8.006;2023-07-13T14:33:15;1.25;;;0.70;;
5521;SDS011;2783;48.730;8.006;2023-07-13T14:35:41;3.97;;;0.68;;
5521;SDS011;2783;48.730;8.006;2023-07-13T14:38:08;1.83;;;0.75;;
5521;SDS011;2783;48.730;8.006;2023-07-13T14:40:37;2.53;;;0.70;;
5521;SDS011;2783;48.730;8.006;2023-07-13T14:43:02;2.28;;;0.60;;
5521;SDS011;2783;48.730;8.006;2023-07-13T14:45:28;2.83;;;0.90;;
5521;SDS011;2783;48.730;8.006;2023-07-13T14:47:56;2.00;;;0.70;;
5521;SDS011;2783;48.730;8.006;2023-07-13T14:50:27;3.67;;;0.90;;
5521;SDS011;2783;48.730;8.006;2023-07-13T14:52:57;2.42;;;0.75;;
5521;SDS011;2783;48.730;8.006;2023-07-13T14:55:22;4.43;;;0.90;;
5521;SDS011;2783;48.730;8.006;2023-07-13T14:57:51;4.00;;;0.73;;
5521;SDS011;2783;48.730;8.006;2023-07-13T15:00:17;1.77;;;0.70;;
5521;SDS011;2783;48.730;8.006;2023-07-13T15:02:47;1.00;;;0.50;;
5521;SDS011;2783;48.730;8.006;2023-07-13T15:05:22;3.67;;;0.70;;
5521;SDS011;2783;48.730;8.006;2023-07-13T15:07:50;2.78;;;0.93;;
5521;SDS011;2783;48.730;8.006;2023-07-13T15:12:43;3.70;;;0.70;;
5521;SDS011;2783;48.730;8.006;2023-07-13T15:15:09;1.30;;;0.60;;
5521;SDS011;2783;48.730;8.006;2023-07-13T15:17:36;2.53;;;0.70;;
5521;SDS011;2783;48.730;8.006;2023-07-13T15:20:49;2.47;;;1.20;;
5521;SDS011;2783;48.730;8.006;2023-07-13T15:22:57;2.88;;;0.60;;
5521;SDS011;2783;48.730;8.006;2023-07-13T15:25:25;4.55;;;1.77;;
5521;SDS011;2783;48.730;8.006;2023-07-13T15:27:52;2.20;;;0.75;;
5521;SDS011;2783;48.730;8.006;2023-07-13T15:30:19;1.00;;;0.63;;
5521;SDS011;2783;48.730;8.006;2023-07-13T15:32:44;2.83;;;0.82;;
5521;SDS011;2783;48.730;8.006;2023-07-13T15:35:15;2.15;;;0.88;;
5521;SDS011;2783;48.730;8.006;2023-07-13T15:37:45;5.43;;;1.13;;
5521;SDS011;2783;48.730;8.006;2023-07-13T15:40:11;2.35;;;1.00;;
5521;SDS011;2783;48.730;8.006;2023-07-13T15:42:38;2.25;;;0.80;;
5521;SDS011;2783;48.730;8.006;2023-07-13T15:45:13;3.20;;;0.73;;
5521;SDS011;2783;48.730;8.006;2023-07-13T15:47:42;2.67;;;1.00;;
5521;SDS011;2783;48.730;8.006;2023-07-13T15:50:19;3.15;;;0.80;;
5521;SDS011;2783;48.730;8.006;2023-07-13T15:52:48;1.85;;;0.80;;
5521;SDS011;2783;48.730;8.006;2023-07-13T15:55:15;3.58;;;0.90;;
5521;SDS011;2783;48.730;8.006;2023-07-13T15:57:42;2.92;;;0.77;;
5521;SDS011;2783;48.730;8.006;2023-07-13T16:00:16;2.88;;;0.82;;
5521;SDS011;2783;48.730;8.006;2023-07-13T16:02:47;1.95;;;0.65;;